Time;durP1;ratioP1;P1;durP2;ratioP2;P2;SDS_P1;SDS_P2;PMS_P1;PMS_P2;Temp;Humidity;BMP_temperature;BMP_pressure;BME280_temperature;BME280_humidity;BME280_pressure;Samples;Min_cycle;Max_cycle;Signal;HPM_P1;HPM_P2
2022/06/12 00:00:18;;;;;;;8.00;7.15;;;;;;;16.71;91.30;93162.72;5090889;28;20030;-37
2022/06/12 00:02:44;;;;;;;9.25;6.90;;;;;;;16.75;90.34;93165.78;5090825;28;20111;-37
2022/06/12 00:05:11;;;;;;;8.00;6.55;;;;;;;16.67;91.16;93174.34;5090845;28;20127;-37
2022/06/12 00:07:37;;;;;;;7.55;6.25;;;;;;;16.66;91.25;93167.31;5090751;28;20032;-37
2022/06/12 00:10:03;;;;;;;5.07;4.60;;;;;;;16.64;91.18;93153.97;5090442;28;20535;-37
2022/06/12 00:12:29;;;;;;;5.18;3.85;;;;;;;16.75;90.34;93163.00;5090070;28;20023;-37
2022/06/12 00:14:55;;;;;;;4.97;4.07;;;;;;;16.76;90.40;93156.84;5090676;28;20058;-37
2022/06/12 00:17:21;;;;;;;5.30;4.22;;;;;;;16.77;90.35;93154.75;5090341;28;20019;-37
2022/06/12 00:19:49;;;;;;;5.15;4.20;;;;;;;16.76;90.06;93156.84;5090190;28;20035;-37
2022/06/12 00:22:16;;;;;;;5.32;4.88;;;;;;;16.74;90.14;93158.75;5090582;28;20032;-37
2022/06/12 00:24:42;;;;;;;5.60;4.75;;;;;;;16.56;89.60;93136.72;5090614;28;20111;-37
2022/06/12 00:27:07;;;;;;;5.63;5.13;;;;;;;16.72;90.38;93150.97;5090649;28;20055;-37
2022/06/12 00:29:34;;;;;;;6.75;6.13;;;;;;;16.67;90.10;93144.41;5090136;28;20027;-37
2022/06/12 00:32:09;;;;;;;7.32;6.63;;;;;;;16.63;90.70;93143.44;5089219;28;20048;-37
2022/06/12 00:34:41;;;;;;;8.60;7.35;;;;;;;16.67;90.53;93152.06;5090019;28;20028;-37
2022/06/12 00:37:09;;;;;;;8.57;7.63;;;;;;;16.62;90.44;93151.06;5091214;28;20239;-37
2022/06/12 00:39:35;;;;;;;8.20;7.40;;;;;;;16.57;90.31;93146.53;5094347;28;20020;-37
2022/06/12 00:42:02;;;;;;;9.27;7.82;;;;;;;16.54;90.76;93144.22;5094190;28;20020;-37
2022/06/12 00:44:34;;;;;;;8.75;7.80;;;;;;;16.48;91.20;93147.28;5094236;28;20519;-37
2022/06/12 00:47:06;;;;;;;9.25;8.20;;;;;;;16.45;91.53;93131.03;5093001;28;20034;-37
2022/06/12 00:49:33;;;;;;;11.55;8.90;;;;;;;16.45;91.59;93140.13;5094085;28;20497;-37
2022/06/12 00:52:32;;;;;;;10.10;8.57;;;;;;;16.43;91.64;93131.63;5094252;28;20020;-37
2022/06/12 00:55:03;;;;;;;9.63;7.63;;;;;;;16.41;91.77;93125.91;5083084;28;20043;-37
2022/06/12 00:57:28;;;;;;;9.98;8.65;;;;;;;16.23;92.02;93107.97;5093162;28;20055;-37
2022/06/12 01:00:01;;;;;;;13.25;8.60;;;;;;;16.37;91.73;93113.78;5092669;28;20051;-37
2022/06/12 01:02:33;;;;;;;10.07;9.07;;;;;;;16.37;92.45;93117.25;5093911;28;20038;-37
2022/06/12 01:07:49;;;;;;;9.52;8.43;;;;;;;16.47;92.56;93125.59;5094138;28;20027;-37
2022/06/12 01:10:16;;;;;;;10.93;9.43;;;;;;;16.50;92.13;93127.22;5092521;28;20081;-37
2022/06/12 01:12:52;;;;;;;11.05;9.70;;;;;;;16.50;92.15;93124.44;5092314;28;20093;-37
2022/06/12 01:15:26;;;;;;;8.95;8.13;;;;;;;16.47;92.14;93112.38;5094079;28;20285;-37
2022/06/12 01:17:52;;;;;;;12.13;8.50;;;;;;;16.55;91.86;93118.53;5072654;28;20477;-37
2022/06/12 01:20:20;;;;;;;10.63;9.20;;;;;;;16.59;91.76;93118.03;5072476;28;20044;-37
2022/06/12 01:23:18;;;;;;;11.53;9.93;;;;;;;16.61;91.84;93123.78;5072347;28;20033;-37
2022/06/12 01:26:30;;;;;;;10.82;9.20;;;;;;;16.63;91.47;93109.97;5073517;28;20434;-37
2022/06/12 01:29:16;;;;;;;9.68;8.77;;;;;;;16.61;90.82;93110.56;4994736;28;20048;-37
2022/06/12 01:32:00;;;;;;;10.25;9.13;;;;;;;16.53;91.18;93115.59;5011111;28;20058;-37
2022/06/12 01:34:48;;;;;;;11.75;8.60;;;;;;;16.55;91.17;93107.38;5042365;28;20036;-37
2022/06/12 01:37:22;;;;;;;9.38;8.32;;;;;;;16.53;91.63;93114.88;5072983;28;20024;-37
2022/06/12 01:40:06;;;;;;;12.00;8.60;;;;;;;16.51;91.50;93106.38;5073137;28;20039;-37
2022/06/12 01:42:50;;;;;;;10.02;8.52;;;;;;;16.46;91.87;93105.34;5073059;28;20028;-37
2022/06/12 01:45:27;;;;;;;10.38;9.38;;;;;;;16.46;91.98;93110.19;5073162;28;20085;-37
2022/06/12 01:48:06;;;;;;;8.38;7.57;;;;;;;16.54;91.28;93099.63;5073133;28;20036;-37
2022/06/12 01:50:57;;;;;;;8.10;7.30;;;;;;;16.57;90.31;93099.13;5087527;28;20036;-37
2022/06/12 01:53:58;;;;;;;14.05;6.30;;;;;;;16.44;90.81;93096.09;5072744;28;20067;-37
2022/06/12 01:56:32;;;;;;;6.03;5.00;;;;;;;16.51;91.12;93101.53;5054678;28;20036;-37
2022/06/12 01:59:53;;;;;;;6.75;6.07;;;;;;;16.55;91.70;93118.53;5055331;28;20420;-37
2022/06/12 02:02:25;;;;;;;6.85;4.72;;;;;;;16.54;92.00;93111.50;5040449;28;20058;-37
2022/06/12 02:05:19;;;;;;;7.88;4.60;;;;;;;16.56;92.46;93117.22;5071664;28;20028;-37
2022/06/12 02:08:04;;;;;;;4.50;3.63;;;;;;;16.56;92.60;93114.41;5054557;28;20028;-37
2022/06/12 02:10:48;;;;;;;5.80;5.15;;;;;;;16.58;92.75;93120.13;5088517;28;20024;-37
2022/06/12 02:13:27;;;;;;;5.05;3.60;;;;;;;16.63;92.71;93112.75;5084156;28;20063;-37
2022/06/12 02:15:57;;;;;;;5.97;2.97;;;;;;;16.58;92.47;93111.75;5092868;28;20024;-37
2022/06/12 02:19:03;;;;;;;2.97;2.78;;;;;;;16.65;92.20;93110.81;5074650;28;20027;-37
2022/06/12 02:21:43;;;;;;;2.67;2.47;;;;;;;16.63;92.05;93107.91;5091769;28;20059;-37
2022/06/12 02:24:27;;;;;;;2.40;2.20;;;;;;;16.62;92.61;93105.72;5092712;28;20031;-37
2022/06/12 02:27:00;;;;;;;2.40;2.10;;;;;;;16.53;91.69;93100.94;5074232;28;20031;-37
2022/06/12 02:30:04;;;;;;;3.38;2.10;;;;;;;16.58;92.12;93113.81;5092143;28;20531;-37
2022/06/12 02:32:38;;;;;;;3.03;2.72;;;;;;;16.56;91.96;93113.69;5072213;28;20031;-37
2022/06/12 02:35:21;;;;;;;3.67;3.38;;;;;;;16.54;92.10;93117.06;5074080;28;20064;-37
2022/06/12 02:37:51;;;;;;;3.17;2.97;;;;;;;16.54;92.20;93121.91;5074342;28;20421;-37
2022/06/12 02:40:36;;;;;;;3.88;3.28;;;;;;;16.63;92.23;93124.63;5074500;28;20112;-37
2022/06/12 02:43:07;;;;;;;3.80;3.42;;;;;;;16.64;91.68;93122.56;5073968;28;20020;-37
2022/06/12 02:45:37;;;;;;;4.28;3.88;;;;;;;16.59;90.69;93129.19;5092290;28;20026;-37
2022/06/12 02:48:04;;;;;;;5.10;4.28;;;;;;;16.61;91.19;93126.56;5091909;28;20073;-37
2022/06/12 02:50:54;;;;;;;7.03;5.38;;;;;;;16.57;91.53;93127.00;5073937;28;20064;-37
2022/06/12 02:53:24;;;;;;;7.28;6.57;;;;;;;16.59;91.30;93123.63;5077244;28;20028;-37
2022/06/12 02:55:57;;;;;;;8.82;7.28;;;;;;;16.56;91.31;93122.78;5073764;28;20110;-37
2022/06/12 02:58:28;;;;;;;9.02;8.23;;;;;;;16.60;91.80;93119.53;5073725;28;20034;-37
2022/06/12 03:00:58;;;;;;;13.40;9.05;;;;;;;16.47;91.48;93101.25;5090564;28;20028;-37
2022/06/12 03:03:30;;;;;;;10.57;8.10;;;;;;;16.62;90.93;93125.22;5073511;28;20016;-37
2022/06/12 03:05:58;;;;;;;8.65;7.72;;;;;;;16.61;91.26;93123.78;5091545;28;20489;-37
2022/06/12 03:08:30;;;;;;;9.43;6.97;;;;;;;16.66;91.75;93117.13;5070302;28;20025;-37
2022/06/12 03:11:07;;;;;;;11.57;9.68;;;;;;;16.59;90.28;93112.47;5071253;28;20016;-37
2022/06/12 03:13:33;;;;;;;10.20;9.18;;;;;;;16.55;91.36;93115.72;5080491;28;20099;-37
2022/06/12 03:16:10;;;;;;;10.93;9.93;;;;;;;16.51;91.80;93118.25;5073290;28;20047;-37
2022/06/12 03:18:39;;;;;;;11.73;10.52;;;;;;;16.55;91.82;93124.09;5091577;28;20109;-37
2022/06/12 03:21:50;;;;;;;13.85;12.55;;;;;;;16.63;91.25;93121.13;5073194;28;20016;-37
2022/06/12 03:24:47;;;;;;;14.00;12.73;;;;;;;16.59;90.80;93126.41;5070223;28;20085;-37
2022/06/12 03:27:21;;;;;;;11.57;10.18;;;;;;;16.54;90.50;93119.88;5077541;28;20032;-38
2022/06/12 03:30:09;;;;;;;8.88;8.07;;;;;;;16.41;90.91;93109.19;5091274;28;20031;-37
2022/06/12 03:32:41;;;;;;;8.90;7.35;;;;;;;16.40;91.31;93121.66;5073285;28;20023;-37
2022/06/12 03:35:25;;;;;;;8.20;7.40;;;;;;;16.24;91.66;93120.56;5091122;28;20054;-37
2022/06/12 03:38:07;;;;;;;7.88;6.45;;;;;;;16.22;92.08;93126.00;5072968;28;20420;-37
2022/06/12 03:40:34;;;;;;;5.90;5.40;;;;;;;16.19;92.36;93120.88;5091236;28;20020;-37
2022/06/12 03:43:05;;;;;;;6.20;5.68;;;;;;;16.19;91.73;93132.03;5090869;28;20513;-37
2022/06/12 03:46:08;;;;;;;7.93;7.25;;;;;;;16.12;93.02;93130.88;5090891;28;20024;-37
2022/06/12 03:49:03;;;;;;;7.88;7.00;;;;;;;15.98;93.03;93127.16;5090833;28;20031;-37
2022/06/12 03:51:43;;;;;;;8.00;7.30;;;;;;;15.99;93.10;93136.94;5090628;28;20020;-37
2022/06/12 03:54:36;;;;;;;7.28;6.47;;;;;;;15.99;93.03;93145.31;5073002;28;20099;-37
2022/06/12 04:00:03;;;;;;;7.00;6.30;;;;;;;15.94;93.15;93137.97;5090973;28;20563;-37
2022/06/12 04:02:29;;;;;;;7.15;6.55;;;;;;;15.91;92.23;93126.00;5071570;28;20055;-37
2022/06/12 04:04:55;;;;;;;9.15;8.30;;;;;;;15.93;93.59;93131.69;5072224;28;20081;-37
2022/06/12 04:07:22;;;;;;;11.80;9.90;;;;;;;15.96;93.50;93129.75;5090524;28;20028;-37
2022/06/12 04:09:50;;;;;;;9.40;8.52;;;;;;;15.95;93.87;93136.66;5072451;28;20032;-37
2022/06/12 04:12:28;;;;;;;7.25;6.65;;;;;;;16.02;94.00;93138.56;5072123;28;20024;-37
2022/06/12 04:15:17;;;;;;;6.28;5.68;;;;;;;16.10;93.61;93153.03;5072437;28;20745;-37
2022/06/12 04:17:43;;;;;;;5.88;5.32;;;;;;;16.12;93.54;93144.81;5090662;28;20023;-37
2022/06/12 04:20:22;;;;;;;5.65;5.18;;;;;;;16.07;93.43;93145.84;5072313;28;20459;-37
2022/06/12 04:22:47;;;;;;;;;;;;;;;16.14;93.27;93152.56;5090881;28;20035;-37
2022/06/12 04:25:43;;;;;;;6.68;5.10;;;;;;;16.13;93.39;93151.13;5090299;28;19908;-37
2022/06/12 04:28:40;;;;;;;9.27;7.82;;;;;;;16.10;93.59;93153.03;5085210;28;20059;-37
2022/06/12 04:31:10;;;;;;;8.70;7.80;;;;;;;16.10;93.98;93146.72;5069104;28;20024;-37
2022/06/12 04:34:00;;;;;;;9.43;8.18;;;;;;;16.08;94.04;93146.59;5069145;28;20383;-37
2022/06/12 04:36:25;;;;;;;38.97;10.18;;;;;;;16.12;94.38;93149.66;5069843;28;20055;-37
2022/06/12 04:38:55;;;;;;;8.10;7.32;;;;;;;16.13;93.98;93153.91;5070264;28;20052;-37
2022/06/12 04:41:24;;;;;;;6.40;5.70;;;;;;;16.19;94.24;93155.06;5070037;28;20416;-37
2022/06/12 04:43:49;;;;;;;;;;;;;;;16.19;93.47;93166.19;5070490;28;20485;-37
2022/06/12 04:46:15;;;;;;;6.43;5.82;;;;;;;16.16;94.43;93152.69;5069860;28;19909;-37
2022/06/12 04:48:44;;;;;;;7.40;6.28;;;;;;;16.17;94.08;93160.47;5052380;28;20024;-37
2022/06/12 04:51:11;;;;;;;10.10;8.18;;;;;;;16.25;93.57;93163.06;5070180;28;20032;-37
2022/06/12 04:53:38;;;;;;;9.07;8.05;;;;;;;16.20;92.76;93170.44;5069761;28;20028;-37
2022/06/12 04:56:04;;;;;;;9.75;8.85;;;;;;;16.08;93.38;93149.38;5070134;28;20117;-37
2022/06/12 04:58:29;;;;;;;10.77;9.65;;;;;;;16.15;93.99;93171.50;5070045;28;20459;-37
2022/06/12 05:00:55;;;;;;;10.77;8.13;;;;;;;16.22;94.09;93167.78;5073154;28;20028;-37
2022/06/12 05:03:21;;;;;;;6.05;5.50;;;;;;;16.24;94.10;93154.00;5090004;28;20101;-37
2022/06/12 05:05:47;;;;;;;12.55;6.35;;;;;;;16.25;92.87;93157.50;5090193;28;20027;-37
2022/06/12 05:08:14;;;;;;;5.90;5.28;;;;;;;16.19;93.33;93162.66;5090197;28;20024;-37
2022/06/12 05:10:40;;;;;;;5.53;5.03;;;;;;;16.29;93.07;93175.22;5090233;28;20021;-37
2022/06/12 05:13:06;;;;;;;6.97;5.20;;;;;;;16.31;93.39;93180.19;5089773;28;20503;-37
2022/06/12 05:15:31;;;;;;;4.43;3.47;;;;;;;16.23;93.26;93171.31;5090219;28;20024;-37
2022/06/12 05:17:57;;;;;;;3.08;2.78;;;;;;;16.22;92.34;93173.34;5090131;28;20569;-37
2022/06/12 05:20:26;;;;;;;2.03;1.90;;;;;;;16.23;90.85;93177.59;5089761;28;20562;-37
2022/06/12 05:22:52;;;;;;;;;;;;;;;16.20;91.57;93181.56;5090662;28;20035;-37
2022/06/12 05:25:18;;;;;;;2.20;2.00;;;;;;;16.22;91.79;93187.28;5092448;28;19911;-37
2022/06/12 05:27:45;;;;;;;1.55;1.45;;;;;;;16.08;91.77;93166.09;5093524;28;20027;-37
2022/06/12 05:30:17;;;;;;;2.80;1.55;;;;;;;16.29;90.42;93194.72;5093714;28;20470;-37
2022/06/12 05:32:44;;;;;;;1.50;1.40;;;;;;;16.31;88.92;93192.09;5093699;28;20085;-37
2022/06/12 05:35:10;;;;;;;2.22;1.48;;;;;;;16.32;88.96;93188.00;5093233;28;20127;-37
2022/06/12 05:37:36;;;;;;;2.40;1.23;;;;;;;16.37;87.37;93208.50;5093265;28;20036;-37
2022/06/12 05:40:10;;;;;;;3.25;1.55;;;;;;;16.35;88.28;93213.94;5093306;28;20103;-37
2022/06/12 05:42:37;;;;;;;2.90;1.13;;;;;;;16.43;88.17;93209.66;5090811;28;20094;-37
2022/06/12 05:45:07;;;;;;;1.60;1.10;;;;;;;16.51;87.91;93207.44;5093464;28;20027;-37
2022/06/12 06:00:30;;;;;;;2.25;0.80;;;;;;;17.56;81.58;93213.69;5064032;28;20894;-38
2022/06/12 06:02:56;;;;;;;1.15;0.90;;;;;;;17.12;81.36;93178.75;5063948;28;20593;-38
2022/06/12 06:05:23;;;;;;;1.48;1.15;;;;;;;17.27;83.04;93217.41;5063897;28;20096;-38
2022/06/12 06:07:48;;;;;;;2.70;1.25;;;;;;;17.25;84.20;93227.72;5063790;28;20031;-37
2022/06/12 06:10:18;;;;;;;3.63;1.60;;;;;;;17.24;83.30;93218.59;5063849;28;20021;-38
2022/06/12 06:12:43;;;;;;;3.35;1.80;;;;;;;17.15;84.20;93204.72;5063548;28;20033;-38
2022/06/12 06:15:10;;;;;;;2.45;2.25;;;;;;;17.26;85.80;93220.81;5064038;28;20035;-38
2022/06/12 06:17:36;;;;;;;3.08;2.72;;;;;;;17.27;86.35;93222.25;5063765;27;20511;-38
2022/06/12 06:20:01;;;;;;;4.07;3.47;;;;;;;17.25;86.79;93220.06;5064027;28;20056;-38
2022/06/12 06:22:27;;;;;;;6.28;4.32;;;;;;;17.29;87.05;93230.75;5060626;27;20100;-38
2022/06/12 06:24:52;;;;;;;4.68;3.72;;;;;;;17.37;87.12;93222.91;5042765;28;20490;-38
2022/06/12 06:27:18;;;;;;;4.38;3.85;;;;;;;17.40;86.75;93225.25;5042265;28;20021;-38
2022/06/12 06:29:43;;;;;;;4.45;4.05;;;;;;;17.50;86.76;93232.81;5043439;28;20137;-38
2022/06/12 06:32:11;;;;;;;5.82;3.38;;;;;;;17.59;86.73;93232.75;5043363;28;20104;-38
2022/06/12 06:34:38;;;;;;;5.13;3.92;;;;;;;17.62;87.28;93234.34;5043629;28;20028;-38
2022/06/12 06:37:06;;;;;;;5.20;3.53;;;;;;;17.70;86.61;93234.13;5043446;28;20021;-38
2022/06/12 06:39:31;;;;;;;3.75;3.40;;;;;;;17.74;85.87;93239.97;5043294;28;20021;-38
2022/06/12 06:41:57;;;;;;;3.45;3.00;;;;;;;17.75;86.52;93231.03;5043313;28;20108;-38
2022/06/12 06:47:07;;;;;;;7.65;5.88;;;;;;;17.56;85.94;93225.59;5043257;28;20699;-38
2022/06/12 06:49:32;;;;;;;7.35;6.35;;;;;;;17.66;86.25;93231.09;5043474;28;20029;-38
2022/06/12 06:51:58;;;;;;;6.72;5.22;;;;;;;17.60;87.46;93236.28;5043187;28;20041;-38
2022/06/12 06:54:26;;;;;;;5.65;5.15;;;;;;;17.46;87.57;93233.28;5043418;28;20040;-38
2022/06/12 06:56:52;;;;;;;5.30;4.80;;;;;;;17.48;87.74;93249.44;5057783;28;20029;-38
2022/06/12 06:59:18;;;;;;;5.15;4.75;;;;;;;17.49;87.17;93243.25;5041686;28;20518;-38
2022/06/12 07:01:44;;;;;;;4.95;4.55;;;;;;;17.35;87.14;93243.03;5028524;28;20044;-38
2022/06/12 07:04:10;;;;;;;4.90;4.50;;;;;;;17.32;87.69;93247.06;5029642;28;20029;-38
2022/06/12 07:06:35;;;;;;;6.00;5.05;;;;;;;17.31;88.27;93237.22;5029977;28;20057;-38
2022/06/12 07:09:01;;;;;;;7.25;6.57;;;;;;;17.31;87.78;93242.78;5029569;28;20021;-38
2022/06/12 07:11:27;;;;;;;4.88;4.40;;;;;;;17.25;87.76;93238.88;5029521;28;20053;-38
2022/06/12 07:13:54;;;;;;;4.25;3.85;;;;;;;17.26;87.94;93243.84;5041444;28;20119;-38
2022/06/12 07:16:20;;;;;;;4.25;3.85;;;;;;;17.12;87.21;93219.88;5049633;28;20029;-38
2022/06/12 07:18:46;;;;;;;5.22;4.00;;;;;;;17.21;88.15;93239.34;5049350;28;20052;-38
2022/06/12 07:21:11;;;;;;;4.50;4.10;;;;;;;17.19;89.24;93244.06;5049688;28;20060;-38
2022/06/12 07:23:37;;;;;;;3.80;3.50;;;;;;;17.20;88.83;93242.72;5049640;28;20477;-38
2022/06/12 07:26:06;;;;;;;6.40;3.75;;;;;;;17.24;89.37;93243.72;5049211;28;20032;-39
2022/06/12 07:28:34;;;;;;;5.07;4.68;;;;;;;17.31;88.88;93250.41;5049126;28;20028;-38
2022/06/12 07:31:00;;;;;;;6.22;5.43;;;;;;;17.31;88.00;93253.94;5049534;28;20025;-39
2022/06/12 07:33:26;;;;;;;5.75;5.25;;;;;;;17.39;88.81;93264.91;5049437;28;20025;-38
2022/06/12 07:35:52;;;;;;;7.47;6.30;;;;;;;17.40;89.84;93263.59;5049191;28;20429;-38
2022/06/12 07:38:20;;;;;;;7.00;6.30;;;;;;;17.42;89.48;93260.91;5049102;28;20032;-38
2022/06/12 07:40:49;;;;;;;9.98;8.20;;;;;;;17.44;89.86;93263.84;5049359;28;20579;-38
2022/06/12 07:43:15;;;;;;;10.95;9.00;;;;;;;17.49;89.92;93270.44;5047898;28;20028;-39
2022/06/12 07:45:42;;;;;;;12.45;9.40;;;;;;;17.51;89.44;93273.38;5048120;28;20078;-39
2022/06/12 07:48:07;;;;;;;9.70;7.82;;;;;;;17.49;88.96;93270.44;5048885;28;20035;-38
2022/06/12 07:50:33;;;;;;;11.25;9.00;;;;;;;17.50;89.40;93271.91;5048864;28;20029;-38
2022/06/12 07:52:59;;;;;;;10.82;6.47;;;;;;;17.44;88.65;93275.00;5029110;28;20112;-38
2022/06/12 07:55:26;;;;;;;5.18;4.50;;;;;;;17.40;89.71;93269.91;5028910;28;20037;-39
2022/06/12 07:57:52;;;;;;;4.03;3.70;;;;;;;17.29;89.83;93256.59;5028851;28;20413;-39
2022/06/12 08:00:18;;;;;;;4.55;3.88;;;;;;;17.40;88.96;93274.75;5028770;28;20061;-38
2022/06/12 08:02:45;;;;;;;4.65;4.25;;;;;;;17.39;89.81;93273.28;5029121;28;20025;-39
2022/06/12 08:05:12;;;;;;;4.85;4.15;;;;;;;17.37;90.13;93279.47;5028780;28;20037;-39
2022/06/12 08:07:38;;;;;;;4.53;4.13;;;;;;;17.38;90.67;93285.78;5028749;28;20040;-39
2022/06/12 08:10:04;;;;;;;6.40;5.85;;;;;;;17.41;91.34;93279.00;5028650;28;20109;-39
2022/06/12 08:12:32;;;;;;;7.15;4.90;;;;;;;17.48;91.12;93286.44;5028181;28;20032;-39
2022/06/12 08:14:58;;;;;;;8.18;5.32;;;;;;;17.50;90.09;93275.44;5048538;28;20053;-38
2022/06/12 08:17:23;;;;;;;6.22;5.70;;;;;;;17.55;90.27;93285.53;5048742;28;20060;-39
2022/06/12 08:22:33;;;;;;;5.95;5.45;;;;;;;17.50;90.55;93277.47;5048426;28;20039;-38
2022/06/12 08:24:59;;;;;;;5.78;5.13;;;;;;;17.34;89.70;93252.75;5048650;28;20029;-39
2022/06/12 08:27:25;;;;;;;6.95;5.25;;;;;;;17.48;90.25;93269.69;5048320;28;20477;-38
2022/06/12 08:29:50;;;;;;;5.60;5.10;;;;;;;17.55;88.98;93279.22;5048212;28;20112;-39
2022/06/12 08:32:19;;;;;;;5.07;4.57;;;;;;;17.63;88.55;93277.69;5048144;28;20047;-38
2022/06/12 08:34:46;;;;;;;;;;;;;;;17.71;88.97;93278.22;5047867;28;20035;-38
2022/06/12 08:37:17;;;;;;;5.13;4.70;;;;;;;17.73;88.45;93283.22;5047098;28;19916;-39
2022/06/12 08:39:42;;;;;;;5.68;5.15;;;;;;;17.61;86.93;93283.13;5048186;28;20683;-39
2022/06/12 08:42:31;;;;;;;5.88;5.30;;;;;;;17.63;87.68;93280.47;5048307;28;20036;-38
2022/06/12 08:45:03;;;;;;;5.82;5.32;;;;;;;17.55;87.52;93282.00;5047199;28;20028;-39
2022/06/12 08:48:02;;;;;;;8.05;5.57;;;;;;;17.65;88.10;93288.28;5041787;28;20048;-38
2022/06/12 08:50:54;;;;;;;7.50;5.70;;;;;;;17.67;87.11;93288.41;5028338;28;20143;-39
2022/06/12 08:53:23;;;;;;;7.32;6.60;;;;;;;17.68;86.99;93296.16;5028046;28;20120;-38
2022/06/12 08:55:56;;;;;;;6.25;5.65;;;;;;;17.66;87.47;93295.31;5028017;28;20104;-39
2022/06/12 08:58:27;;;;;;;7.30;6.60;;;;;;;17.62;87.97;93287.41;5027466;28;20114;-38
2022/06/12 09:00:54;;;;;;;7.15;6.55;;;;;;;17.61;86.97;93288.72;5027386;28;20037;-39
2022/06/12 09:03:23;;;;;;;9.70;7.95;;;;;;;17.60;86.91;93298.44;5026991;28;20498;-39
2022/06/12 09:05:54;;;;;;;10.27;9.23;;;;;;;17.66;86.23;93298.84;5026616;28;20033;-39
2022/06/12 09:08:29;;;;;;;8.93;8.13;;;;;;;17.68;85.06;93301.00;5028009;28;20025;-39
2022/06/12 09:11:00;;;;;;;12.68;10.85;;;;;;;17.62;85.52;93306.94;5027772;28;20029;-39
2022/06/12 09:13:32;;;;;;;9.98;9.05;;;;;;;17.52;86.96;93306.25;5036084;28;20025;-39
2022/06/12 09:16:20;;;;;;;7.43;6.68;;;;;;;17.47;85.98;93312.16;5047830;28;20025;-38
2022/06/12 09:19:12;;;;;;;8.50;7.72;;;;;;;17.47;86.21;93307.31;5046404;28;20046;-38
2022/06/12 09:22:09;;;;;;;8.65;7.70;;;;;;;17.49;87.71;93320.66;5046329;28;20032;-38
2022/06/12 09:24:40;;;;;;;7.38;6.68;;;;;;;17.52;86.75;93313.94;5047560;28;20459;-38
2022/06/12 09:27:34;;;;;;;9.32;8.32;;;;;;;17.53;87.79;93312.59;5047716;28;20048;-38
2022/06/12 09:30:10;;;;;;;9.27;8.38;;;;;;;17.53;88.43;93310.53;5047233;28;20033;-38
2022/06/12 09:32:44;;;;;;;9.18;8.30;;;;;;;17.63;88.10;93313.97;5046176;28;20029;-38
2022/06/12 09:35:28;;;;;;;9.23;8.30;;;;;;;17.72;88.75;93313.19;5047404;28;20028;-38
2022/06/12 09:38:21;;;;;;;12.32;8.80;;;;;;;17.77;88.52;93316.97;5047715;28;20025;-38
2022/06/12 09:41:32;;;;;;;7.72;7.03;;;;;;;17.96;88.46;93306.38;5047311;28;20536;-38
2022/06/12 09:44:09;;;;;;;8.25;7.45;;;;;;;18.12;87.72;93303.91;4993914;28;20033;-38
2022/06/12 09:47:03;;;;;;;8.57;7.68;;;;;;;18.21;87.53;93302.34;5027279;28;20026;-38
2022/06/12 09:49:56;;;;;;;7.82;7.13;;;;;;;18.41;86.93;93304.34;5027192;28;20082;-38
2022/06/12 09:52:34;;;;;;;8.20;7.40;;;;;;;18.63;86.57;93302.22;5026072;28;20029;-38
2022/06/12 09:55:14;;;;;;;7.55;6.95;;;;;;;18.75;86.15;93309.28;5027607;28;20033;-38
2022/06/12 09:57:39;;;;;;;8.00;6.50;;;;;;;18.82;83.64;93302.75;5027025;28;20524;-38
2022/06/12 10:00:08;;;;;;;7.75;6.95;;;;;;;18.86;84.10;93302.97;5026993;28;20053;-39
2022/06/12 10:02:52;;;;;;;7.20;6.50;;;;;;;18.88;83.46;93296.81;5027460;28;20032;-38
2022/06/12 10:05:25;;;;;;;6.18;5.55;;;;;;;18.76;82.19;93307.97;5027330;28;20049;-38
2022/06/12 10:08:02;;;;;;;6.05;5.55;;;;;;;18.67;83.39;93296.88;5027047;28;20118;-38
2022/06/12 10:10:40;;;;;;;12.98;5.30;;;;;;;18.62;nan;93304.31;5026989;28;20025;-38
2022/06/12 10:13:09;;;;;;;6.85;6.15;;;;;;;18.59;82.96;93305.50;5031351;28;20084;-38
2022/06/12 10:15:39;;;;;;;6.18;5.63;;;;;;;18.64;83.36;93303.69;5045630;28;20021;-38
2022/06/12 10:18:10;;;;;;;6.50;5.90;;;;;;;18.77;84.39;93300.31;5045656;28;20017;-39
2022/06/12 10:20:46;;;;;;;5.70;5.18;;;;;;;18.88;82.24;93296.81;5045529;28;20029;-39
2022/06/12 10:23:12;;;;;;;5.88;4.78;;;;;;;18.93;80.89;93301.28;5046658;28;20100;-38
2022/06/12 10:25:42;;;;;;;4.72;4.25;;;;;;;18.78;78.78;93308.09;5046648;28;20039;-38
2022/06/12 10:28:13;;;;;;;6.38;5.40;;;;;;;18.71;81.24;93308.34;5045386;28;20033;-39
2022/06/12 10:30:40;;;;;;;13.82;10.02;;;;;;;18.68;81.73;93313.06;5046586;28;20084;-38
2022/06/12 10:33:25;;;;;;;14.57;8.73;;;;;;;18.64;82.66;93312.09;5046522;28;20519;-38
2022/06/12 10:35:54;;;;;;;16.35;12.25;;;;;;;18.69;84.28;93311.00;5048774;28;20394;-38
2022/06/12 10:38:22;;;;;;;11.60;9.02;;;;;;;18.79;84.28;93315.16;5049962;28;20017;-39
2022/06/12 10:40:54;;;;;;;14.73;12.30;;;;;;;18.94;84.20;93305.56;5038009;28;20025;-39
2022/06/12 10:43:28;;;;;;;10.38;8.75;;;;;;;19.16;83.41;93312.50;5030093;28;20108;-39
2022/06/12 10:46:00;;;;;;;9.98;7.65;;;;;;;19.50;83.24;93311.03;5030078;28;20116;-39
2022/06/12 10:48:30;;;;;;;7.38;5.03;;;;;;;19.80;80.07;93309.25;5030237;28;20041;-39
2022/06/12 10:51:27;;;;;;;10.85;7.95;;;;;;;20.02;77.87;93307.72;5029995;28;20037;-39
2022/06/12 10:53:59;;;;;;;5.82;5.22;;;;;;;20.42;79.01;93304.44;5030660;28;20503;-39
2022/06/12 10:56:44;;;;;;;6.32;5.53;;;;;;;21.25;77.61;93300.47;5011007;28;20049;-39
2022/06/12 10:59:16;;;;;;;5.85;4.38;;;;;;;21.71;75.04;93288.81;5028460;28;20052;-40
2022/06/12 11:02:26;;;;;;;4.80;4.25;;;;;;;21.78;70.44;93294.13;5028876;28;20052;-39
2022/06/12 11:05:04;;;;;;;3.95;3.65;;;;;;;21.61;68.53;93293.94;5028607;28;20482;-39
2022/06/12 11:08:06;;;;;;;4.00;3.60;;;;;;;21.61;70.07;93296.75;5029962;28;20445;-39
2022/06/12 11:10:43;;;;;;;5.25;4.75;;;;;;;21.60;70.03;93289.66;5029871;28;20033;-39
2022/06/12 11:13:18;;;;;;;4.85;4.35;;;;;;;21.64;68.90;93293.41;5035707;28;20480;-39
2022/06/12 11:15:49;;;;;;;4.20;3.80;;;;;;;21.79;68.09;93294.84;5049825;28;20699;-39
2022/06/12 11:18:20;;;;;;;3.53;3.17;;;;;;;21.76;67.69;93296.84;5049472;28;20100;-39
2022/06/12 11:20:55;;;;;;;4.55;4.15;;;;;;;21.67;68.90;93297.06;5049369;28;20497;-39
2022/06/12 11:23:32;;;;;;;4.70;4.30;;;;;;;21.50;68.74;93295.50;5049222;28;20516;-39
2022/06/12 11:26:10;;;;;;;4.15;3.75;;;;;;;;;;5048201;28;20036;-39
2022/06/12 11:28:57;;;;;;;5.85;4.35;;;;;;;21.11;68.76;93304.00;5049276;28;20113;-39
2022/06/12 11:31:32;;;;;;;7.82;6.07;;;;;;;20.94;70.70;93303.75;5048381;28;20029;-39
2022/06/12 11:34:31;;;;;;;7.55;6.85;;;;;;;20.86;70.65;93292.81;5048278;28;20035;-39
2022/06/12 11:37:39;;;;;;;6.68;6.07;;;;;;;20.80;71.26;93292.50;5018476;28;20040;-39
2022/06/12 11:40:19;;;;;;;5.82;5.20;;;;;;;20.87;73.28;93288.66;5029291;28;20021;-40
2022/06/12 11:42:54;;;;;;;4.82;4.35;;;;;;;20.94;72.60;93293.25;5028126;28;20026;-39
2022/06/12 11:46:01;;;;;;;6.53;5.88;;;;;;;20.80;71.39;93291.75;5029048;28;20029;-39
2022/06/12 11:48:58;;;;;;;6.35;5.78;;;;;;;20.55;72.03;93289.75;5038398;28;20072;-39
2022/06/12 11:51:27;;;;;;;6.10;5.55;;;;;;;20.28;71.81;93295.22;5028985;28;20025;-39
2022/06/12 11:54:14;;;;;;;6.38;5.78;;;;;;;20.12;73.21;93295.03;5029082;28;20025;-39
2022/06/12 11:57:16;;;;;;;7.00;5.78;;;;;;;19.96;74.64;93290.59;5028872;28;20596;-39
2022/06/12 11:59:54;;;;;;;10.45;5.90;;;;;;;19.86;75.92;93290.00;5028708;28;20045;-39
2022/06/12 12:02:30;;;;;;;8.60;5.43;;;;;;;19.73;75.67;93291.38;5028805;28;20029;-39
2022/06/12 12:05:06;;;;;;;7.00;5.80;;;;;;;19.58;75.10;93297.50;5028893;28;20562;-40
2022/06/12 12:07:38;;;;;;;6.30;5.70;;;;;;;19.45;75.01;93293.25;5027701;28;20032;-39
2022/06/12 12:10:25;;;;;;;7.25;5.72;;;;;;;19.39;76.96;93287.31;5028657;28;20558;-39
2022/06/12 12:12:55;;;;;;;5.95;5.35;;;;;;;19.36;76.45;93287.81;5032288;28;20383;-39
2022/06/12 12:15:43;;;;;;;6.70;5.40;;;;;;;19.25;76.67;93286.44;5047612;28;20095;-39
2022/06/12 12:18:17;;;;;;;8.82;6.05;;;;;;;19.26;77.33;93284.38;5047321;28;20025;-39
2022/06/12 12:20:43;;;;;;;6.22;5.63;;;;;;;19.24;78.35;93290.59;5047301;28;20017;-39
2022/06/12 12:23:17;;;;;;;6.53;5.93;;;;;;;19.12;78.27;93277.94;5047171;28;20074;-39
2022/06/12 12:25:48;;;;;;;6.32;5.82;;;;;;;19.22;78.35;93281.34;5047200;28;20424;-39
2022/06/12 12:28:33;;;;;;;6.15;5.63;;;;;;;19.26;77.06;93279.50;5048291;28;20032;-39
2022/06/12 12:31:02;;;;;;;8.52;5.63;;;;;;;19.28;77.95;93276.81;5048436;28;20056;-39